createdAt,value
2023-02-23T08:24:05.137Z,7.09
2023-02-23T08:25:05.049Z,7.13
2023-02-23T08:26:05.027Z,7.15
2023-02-23T08:27:05.001Z,7.16
2023-02-23T08:28:05.021Z,7.16
2023-02-23T08:29:05.003Z,7.17
2023-02-23T08:30:05.043Z,7.16
2023-02-23T08:31:05.028Z,7.17
2023-02-23T08:32:05.047Z,7.19
2023-02-23T08:33:04.936Z,7.19
2023-02-23T08:34:04.898Z,7.19
2023-02-23T08:35:04.881Z,7.22
2023-02-23T08:36:04.903Z,7.22
2023-02-23T08:37:04.902Z,7.22
2023-02-23T08:38:04.881Z,7.22
2023-02-23T08:39:04.860Z,7.23
2023-02-23T08:40:04.841Z,7.22
2023-02-23T08:41:04.839Z,7.24
2023-02-23T08:42:04.806Z,7.24
2023-02-23T08:43:04.810Z,7.23
2023-02-23T08:44:04.789Z,7.22
2023-02-23T08:45:04.767Z,7.23
2023-02-23T08:46:04.820Z,7.23
2023-02-23T08:47:04.743Z,7.24
2023-02-23T08:48:04.750Z,7.23
2023-02-23T08:49:04.695Z,7.23
2023-02-23T08:50:04.673Z,7.24
2023-02-23T08:51:04.689Z,7.24
2023-02-23T08:52:04.696Z,7.23
2023-02-23T08:53:04.634Z,7.22
2023-02-23T08:54:04.652Z,7.23
2023-02-23T08:55:04.604Z,7.24
2023-02-23T08:56:04.586Z,7.26
2023-02-23T08:57:04.572Z,7.26
2023-02-23T08:58:04.563Z,7.27
2023-02-23T08:59:04.554Z,7.29
2023-02-23T09:00:04.568Z,7.29
2023-02-23T09:01:04.612Z,7.31
2023-02-23T09:02:04.809Z,7.31
2023-02-23T09:03:04.501Z,7.32
2023-02-23T09:04:04.509Z,7.32
2023-02-23T09:05:04.524Z,7.31
2023-02-23T09:06:04.492Z,7.34
2023-02-23T09:07:04.487Z,7.35
2023-02-23T09:08:04.487Z,7.37
2023-02-23T09:09:04.425Z,7.37
2023-02-23T09:10:04.392Z,7.38
2023-02-23T09:11:04.435Z,7.40
2023-02-23T09:12:04.378Z,7.40
2023-02-23T09:13:04.382Z,7.40
2023-02-23T09:14:04.367Z,7.41
2023-02-23T09:15:04.325Z,7.41
2023-02-23T09:16:04.473Z,7.44
2023-02-23T09:17:04.354Z,7.44
2023-02-23T09:18:04.329Z,7.44
2023-02-23T09:19:04.363Z,7.44
2023-02-23T09:20:04.277Z,7.47
2023-02-23T09:21:04.285Z,7.47
2023-02-23T09:22:04.230Z,7.49
2023-02-23T09:23:04.249Z,7.49
2023-02-23T09:24:04.225Z,7.49
2023-02-23T09:25:04.223Z,7.50
2023-02-23T09:26:04.241Z,7.50
2023-02-23T09:27:04.200Z,7.52
2023-02-23T09:28:04.182Z,7.52
2023-02-23T09:29:04.175Z,7.52
2023-02-23T09:30:04.183Z,7.53
2023-02-23T09:31:04.237Z,7.53
2023-02-23T09:32:04.272Z,7.55
2023-02-23T09:33:04.099Z,7.56
2023-02-23T09:34:04.099Z,7.59
2023-02-23T09:35:04.111Z,7.59
2023-02-23T09:36:04.052Z,7.59
2023-02-23T09:37:04.068Z,7.62
2023-02-23T09:38:04.048Z,7.62
2023-02-23T09:39:04.036Z,7.66
2023-02-23T09:40:04.047Z,7.66
2023-02-23T09:41:04.008Z,7.72
2023-02-23T09:42:04.001Z,7.71
2023-02-23T09:43:04.006Z,7.72
2023-02-23T09:44:03.938Z,7.74
2023-02-23T09:45:03.956Z,7.74
2023-02-23T09:46:03.951Z,7.75
2023-02-23T09:47:03.925Z,7.77
2023-02-23T09:48:03.896Z,7.79
2023-02-23T09:49:03.877Z,7.81
2023-02-23T09:50:03.884Z,7.81
2023-02-23T09:51:03.835Z,7.82
